Time;durP1;ratioP1;P1;durP2;ratioP2;P2;SDS_P1;SDS_P2;PMS_P1;PMS_P2;Temp;Humidity;BMP_temperature;BMP_pressure;BME280_temperature;BME280_humidity;BME280_pressure;Samples;Min_cycle;Max_cycle;Signal;HPM_P1;HPM_P2
2022/10/25 00:01:03;;;;;;;2.90;0.90;;;;;;;14.50;79.40;100490.66;5054567;28;20425;-77
2022/10/25 00:03:29;;;;;;;4.28;0.60;;;;;;;14.58;79.20;100491.22;5052413;28;20414;-77
2022/10/25 00:05:54;;;;;;;5.23;0.53;;;;;;;14.59;79.12;100488.22;5029008;28;20832;-77
2022/10/25 00:08:19;;;;;;;4.57;0.50;;;;;;;14.59;79.30;100493.66;5053525;28;20401;-77
2022/10/25 00:10:44;;;;;;;5.38;0.60;;;;;;;14.55;79.46;100495.31;5054733;28;20436;-78
2022/10/25 00:13:10;;;;;;;1.80;0.40;;;;;;;14.54;79.23;100504.59;5046522;28;20513;-78
2022/10/25 00:15:36;;;;;;;3.80;0.80;;;;;;;14.54;79.63;100496.41;5053755;28;20401;-77
2022/10/25 00:18:01;;;;;;;1.60;0.60;;;;;;;14.62;79.48;100497.78;5052978;28;20500;-77
2022/10/25 00:20:26;;;;;;;4.57;0.50;;;;;;;14.67;79.51;100495.88;5028707;28;20393;-78
2022/10/25 00:22:52;;;;;;;2.53;0.40;;;;;;;14.71;79.40;100501.63;5046312;28;20861;-77
2022/10/25 00:25:17;;;;;;;3.23;0.60;;;;;;;14.72;79.27;100500.53;5036574;28;20535;-77
2022/10/25 00:27:42;;;;;;;4.30;0.70;;;;;;;14.71;79.33;100505.16;5050030;28;20424;-77
2022/10/25 00:30:08;;;;;;;4.30;0.30;;;;;;;14.69;79.29;100501.03;5063538;28;20905;-77
2022/10/25 00:32:34;;;;;;;0.70;0.43;;;;;;;14.68;79.42;100499.44;5051073;28;20551;-77
2022/10/25 00:34:59;;;;;;;1.80;0.60;;;;;;;14.64;79.37;100496.41;5051167;28;20772;-78
2022/10/25 00:37:24;;;;;;;4.40;0.70;;;;;;;14.65;79.65;100494.53;5051774;28;20421;-78
2022/10/25 00:39:50;;;;;;;0.35;0.35;;;;;;;14.68;79.57;100491.25;5050297;28;20433;-78
2022/10/25 00:42:21;;;;;;;3.23;0.53;;;;;;;14.64;79.31;100492.88;5049689;28;20425;-78
2022/10/25 00:44:57;;;;;;;2.88;0.85;;;;;;;14.59;79.85;100484.69;5052200;28;20394;-78
2022/10/25 00:47:43;;;;;;;2.05;0.90;;;;;;;14.57;79.64;100490.41;5043549;28;20459;-77
2022/10/25 00:50:24;;;;;;;1.50;0.82;;;;;;;14.56;79.57;100491.50;5036322;28;20412;-78
2022/10/25 00:52:54;;;;;;;2.95;0.90;;;;;;;14.53;79.55;100492.84;5059217;28;20779;-77
2022/10/25 00:55:23;;;;;;;2.75;1.23;;;;;;;14.53;79.62;100501.03;5050622;28;20402;-77
2022/10/25 00:58:17;;;;;;;3.42;0.88;;;;;;;14.51;79.73;100494.22;5051253;28;20761;-78
2022/10/25 01:00:44;;;;;;;2.60;0.73;;;;;;;14.48;80.06;100498.31;5051095;28;20467;-77
2022/10/25 01:03:10;;;;;;;2.55;0.90;;;;;;;14.55;79.69;100506.22;5053453;28;20421;-77
2022/10/25 01:05:36;;;;;;;1.90;0.60;;;;;;;14.53;80.06;100506.50;5043973;28;20874;-77
2022/10/25 01:08:03;;;;;;;1.37;0.60;;;;;;;14.55;80.14;100498.06;5041477;28;20407;-77
2022/10/25 01:10:29;;;;;;;2.85;0.70;;;;;;;14.62;79.98;100512.22;5036118;28;20389;-77
2022/10/25 01:12:54;;;;;;;2.78;0.93;;;;;;;14.66;79.80;100507.88;5053236;28;20401;-78
2022/10/25 01:15:24;;;;;;;2.80;0.90;;;;;;;14.66;79.82;100496.13;5041167;28;20473;-77
2022/10/25 01:17:59;;;;;;;5.63;1.17;;;;;;;14.68;79.85;100505.72;5046218;28;20409;-77
2022/10/25 01:20:34;;;;;;;5.10;0.80;;;;;;;14.67;80.09;100501.34;5052186;28;20488;-77
2022/10/25 01:23:06;;;;;;;3.75;0.80;;;;;;;14.73;80.15;100505.69;5046659;28;20421;-78
2022/10/25 01:26:05;;;;;;;4.28;0.82;;;;;;;14.62;80.79;100505.97;5049248;28;20404;-78
2022/10/25 01:28:52;;;;;;;2.30;1.20;;;;;;;14.60;81.02;100498.03;5052399;28;20415;-77
2022/10/25 01:31:29;;;;;;;2.80;1.05;;;;;;;14.66;81.03;100504.31;5055847;28;20400;-77
2022/10/25 01:34:20;;;;;;;10.38;1.15;;;;;;;14.71;80.86;100505.16;5058842;28;20392;-78
2022/10/25 01:37:02;;;;;;;5.55;1.00;;;;;;;14.75;80.84;100506.25;5053419;28;20733;-77
2022/10/25 01:40:04;;;;;;;3.97;1.38;;;;;;;14.81;80.91;100509.81;5054473;28;20755;-78
2022/10/25 01:42:57;;;;;;;2.97;1.20;;;;;;;14.81;80.70;100505.19;5018734;28;20462;-77
2022/10/25 01:45:29;;;;;;;2.63;1.00;;;;;;;14.84;80.98;100499.19;5039739;28;20389;-77
2022/10/25 01:48:21;;;;;;;3.72;3.17;;;;;;;14.82;81.21;100503.28;5022811;28;20405;-77
2022/10/25 01:50:47;;;;;;;5.00;1.70;;;;;;;14.85;81.24;100505.47;5047780;28;20410;-77
2022/10/25 01:53:13;;;;;;;4.15;1.10;;;;;;;14.86;81.15;100504.34;5046553;28;20492;-77
2022/10/25 01:55:55;;;;;;;2.53;1.00;;;;;;;14.83;81.32;100502.16;5060164;28;20454;-77
2022/10/25 01:58:48;;;;;;;5.70;1.30;;;;;;;14.77;81.54;100504.06;5042222;28;20389;-77
2022/10/25 02:01:39;;;;;;;4.17;1.10;;;;;;;14.75;81.72;100505.44;5047778;28;20408;-77
2022/10/25 02:04:17;;;;;;;4.30;1.23;;;;;;;14.75;81.88;100502.72;5032143;28;20525;-77
2022/10/25 02:06:46;;;;;;;3.05;1.50;;;;;;;14.82;81.62;100504.06;5038038;28;20396;-77
2022/10/25 02:09:23;;;;;;;2.28;1.20;;;;;;;14.84;81.44;100495.63;5052145;28;20413;-77
2022/10/25 02:11:50;;;;;;;6.57;1.47;;;;;;;14.79;81.70;100496.44;5043250;28;20889;-77
2022/10/25 02:14:20;;;;;;;1.48;1.23;;;;;;;14.85;81.32;100494.53;5053140;28;20746;-77
2022/10/25 02:17:13;;;;;;;4.43;1.25;;;;;;;14.84;81.57;100495.63;5042923;28;20896;-77
2022/10/25 02:19:44;;;;;;;1.85;1.23;;;;;;;14.81;81.42;100498.91;5052407;28;20882;-77
2022/10/25 02:22:12;;;;;;;2.15;1.25;;;;;;;14.76;81.62;100494.25;5034527;28;20917;-78
2022/10/25 02:24:40;;;;;;;2.40;1.00;;;;;;;14.78;81.46;100494.00;5059289;28;20450;-77
2022/10/25 02:27:09;;;;;;;4.40;1.52;;;;;;;14.74;81.61;100498.34;5049122;28;20923;-77
2022/10/25 02:29:35;;;;;;;4.20;1.38;;;;;;;14.70;81.77;100489.88;5039476;28;20460;-77
2022/10/25 02:32:03;;;;;;;2.80;1.23;;;;;;;14.70;82.02;100495.34;5042564;28;20398;-77
2022/10/25 02:34:28;;;;;;;2.55;1.50;;;;;;;14.67;82.15;100493.16;5038072;28;20478;-77
2022/10/25 02:36:53;;;;;;;3.20;1.30;;;;;;;14.66;82.02;100491.50;5045506;28;20398;-77
2022/10/25 02:39:24;;;;;;;5.32;1.38;;;;;;;14.68;82.31;100493.97;5024984;28;20542;-77
2022/10/25 02:41:50;;;;;;;2.50;1.40;;;;;;;14.67;82.18;100489.59;5046925;28;20782;-77
2022/10/25 02:44:15;;;;;;;3.13;1.20;;;;;;;14.66;82.18;100488.78;5036562;28;20415;-77
2022/10/25 02:46:41;;;;;;;4.43;1.30;;;;;;;14.72;81.89;100495.88;5047898;28;20520;-77
2022/10/25 02:49:06;;;;;;;4.30;1.43;;;;;;;14.65;82.01;100497.25;5065444;28;20557;-77
2022/10/25 02:51:31;;;;;;;6.50;2.90;;;;;;;14.71;82.03;100494.25;5048812;28;20412;-77
2022/10/25 02:53:57;;;;;;;5.07;2.30;;;;;;;14.74;81.61;100506.53;5028842;28;20415;-78
2022/10/25 02:56:23;;;;;;;6.07;2.42;;;;;;;14.72;81.73;100506.00;5052735;28;20757;-77
2022/10/25 02:58:50;;;;;;;2.53;1.83;;;;;;;14.67;81.97;100501.34;5051018;28;20404;-77
2022/10/25 03:01:18;;;;;;;2.60;1.50;;;;;;;14.68;82.01;100508.44;5049527;28;20398;-77
2022/10/25 03:03:44;;;;;;;5.40;1.70;;;;;;;14.72;81.69;100498.59;5036880;28;20758;-77
2022/10/25 03:06:10;;;;;;;4.07;1.35;;;;;;;14.78;81.79;100499.44;5052259;28;20407;-77
2022/10/25 03:08:37;;;;;;;7.15;1.35;;;;;;;14.76;81.57;100494.25;5052386;28;20409;-78
2022/10/25 03:11:03;;;;;;;2.97;1.50;;;;;;;14.76;81.65;100493.44;5048927;28;20886;-78
2022/10/25 03:13:28;;;;;;;7.57;1.77;;;;;;;14.78;81.60;100491.25;5059614;28;20989;-77
2022/10/25 03:15:54;;;;;;;5.47;1.45;;;;;;;14.78;81.74;100497.53;5059836;28;20435;-78
2022/10/25 03:18:19;;;;;;;2.70;1.30;;;;;;;14.78;81.88;100502.16;5052937;28;20401;-77
2022/10/25 03:20:44;;;;;;;5.17;1.47;;;;;;;14.82;81.89;100500.53;5019566;28;20488;-77
2022/10/25 03:23:11;;;;;;;4.20;1.00;;;;;;;14.84;81.55;100499.19;5037843;28;20410;-77
2022/10/25 03:25:36;;;;;;;3.30;1.60;;;;;;;14.88;81.54;100499.47;5046433;28;20410;-78
2022/10/25 03:28:02;;;;;;;6.15;1.50;;;;;;;14.88;81.37;100494.81;5052353;28;20393;-77
2022/10/25 03:30:29;;;;;;;4.70;1.77;;;;;;;14.85;81.42;100495.34;5027756;28;20403;-77
2022/10/25 03:32:54;;;;;;;6.95;2.17;;;;;;;14.81;81.68;100499.72;5034311;28;20399;-77
2022/10/25 03:35:20;;;;;;;5.90;1.58;;;;;;;14.79;81.69;100503.78;5055662;28;20411;-77
2022/10/25 03:37:47;;;;;;;4.40;1.20;;;;;;;14.77;81.43;100508.72;5043744;28;20415;-77
2022/10/25 03:40:12;;;;;;;4.90;1.63;;;;;;;14.73;81.78;100499.41;5052164;28;20861;-77
2022/10/25 03:42:37;;;;;;;3.70;1.17;;;;;;;14.71;81.82;100505.16;5051389;28;20419;-78
2022/10/25 03:45:03;;;;;;;4.47;1.23;;;;;;;14.70;81.82;100511.69;5054778;28;20862;-78
2022/10/25 03:47:28;;;;;;;4.73;1.90;;;;;;;14.71;81.44;100512.53;5040456;28;20422;-77
2022/10/25 03:49:54;;;;;;;2.97;1.30;;;;;;;14.71;81.47;100513.34;5052038;28;20819;-77
2022/10/25 03:52:19;;;;;;;5.53;1.17;;;;;;;14.69;81.42;100515.50;5040552;28;20448;-77
2022/10/25 03:54:44;;;;;;;3.73;1.50;;;;;;;14.62;82.01;100506.75;5056891;28;20489;-77
2022/10/25 03:57:10;;;;;;;3.85;1.27;;;;;;;14.60;82.06;100516.31;5059369;28;20468;-77
2022/10/25 03:59:35;;;;;;;4.23;1.40;;;;;;;14.56;81.83;100507.84;5061948;28;20396;-78
2022/10/25 04:02:00;;;;;;;2.00;1.20;;;;;;;14.60;82.01;100508.13;5044260;28;20466;-77
2022/10/25 04:04:25;;;;;;;6.78;1.75;;;;;;;14.59;81.76;100520.94;5045895;28;20429;-77
2022/10/25 04:06:51;;;;;;;4.40;1.30;;;;;;;14.58;82.07;100519.31;5048314;28;20764;-77
2022/10/25 04:09:16;;;;;;;4.50;1.40;;;;;;;14.59;81.94;100529.13;5048721;28;20458;-76
2022/10/25 04:11:41;;;;;;;3.67;1.52;;;;;;;14.55;81.86;100523.38;5033381;28;20405;-77
2022/10/25 04:14:07;;;;;;;4.23;1.70;;;;;;;14.53;81.76;100522.03;5056336;28;20407;-76
2022/10/25 04:16:32;;;;;;;4.68;1.60;;;;;;;14.50;81.82;100526.13;5056324;28;20890;-76
2022/10/25 04:18:57;;;;;;;3.87;1.17;;;;;;;14.48;82.06;100525.56;5052596;28;20399;-77
2022/10/25 04:21:24;;;;;;;4.72;1.65;;;;;;;14.47;81.92;100528.56;5055042;28;20394;-77
2022/10/25 04:23:49;;;;;;;7.10;1.80;;;;;;;14.43;81.93;100527.44;5054798;28;20429;-76
2022/10/25 04:26:16;;;;;;;2.90;1.27;;;;;;;14.41;81.95;100530.47;5064823;28;20902;-77
2022/10/25 04:28:42;;;;;;;7.53;1.60;;;;;;;14.43;82.09;100532.91;5054140;28;20412;-76
2022/10/25 04:31:11;;;;;;;3.80;1.20;;;;;;;14.48;82.12;100531.03;5067149;28;20864;-77
2022/10/25 04:33:36;;;;;;;2.97;1.60;;;;;;;14.48;81.70;100531.03;5038770;28;20423;-77
2022/10/25 04:36:05;;;;;;;5.10;1.30;;;;;;;14.48;81.79;100533.75;5038677;28;20409;-77
2022/10/25 04:38:30;;;;;;;5.47;1.20;;;;;;;14.51;81.72;100530.50;5056677;28;20880;-77
2022/10/25 04:40:57;;;;;;;6.80;1.37;;;;;;;14.57;81.54;100533.22;5050173;28;20467;-77
2022/10/25 04:43:24;;;;;;;1.67;1.00;;;;;;;14.61;81.73;100528.88;5051895;28;20421;-77
2022/10/25 04:45:49;;;;;;;4.15;1.42;;;;;;;14.63;81.66;100534.88;5051233;28;20796;-78
2022/10/25 04:48:15;;;;;;;6.87;1.50;;;;;;;14.64;81.49;100541.97;5052325;28;20393;-80
2022/10/25 04:50:41;;;;;;;3.97;1.00;;;;;;;14.64;81.42;100529.16;5052925;28;20477;-78
2022/10/25 04:53:06;;;;;;;2.42;1.13;;;;;;;14.63;81.58;100530.22;5063827;28;20406;-79
2022/10/25 04:55:32;;;;;;;3.00;1.37;;;;;;;14.63;81.46;100530.22;5049441;28;20394;-78
2022/10/25 04:57:57;;;;;;;5.18;1.40;;;;;;;14.64;81.50;100531.06;5055625;28;20396;-79
2022/10/25 05:00:23;;;;;;;5.27;1.60;;;;;;;14.64;81.21;100536.50;5053477;28;20401;-79
2022/10/25 05:02:53;;;;;;;3.50;1.43;;;;;;;14.66;81.51;100535.16;5027154;28;20766;-79
2022/10/25 05:05:19;;;;;;;1.85;1.17;;;;;;;14.66;81.65;100542.50;5053687;28;20915;-79
2022/10/25 05:07:44;;;;;;;6.32;1.50;;;;;;;14.67;81.55;100544.16;5035634;28;20512;-78
2022/10/25 05:10:10;;;;;;;2.58;1.20;;;;;;;14.72;81.42;100538.72;5046696;28;20919;-78
2022/10/25 05:12:36;;;;;;;4.40;1.50;;;;;;;14.76;81.29;100543.34;5037368;28;20463;-78
2022/10/25 05:15:02;;;;;;;6.93;1.40;;;;;;;14.79;81.11;100541.97;5051725;28;20405;-79
2022/10/25 05:17:28;;;;;;;3.85;1.60;;;;;;;14.80;81.16;100540.91;5058363;28;20735;-78
2022/10/25 05:19:53;;;;;;;6.20;1.50;;;;;;;14.81;81.03;100545.28;5042628;28;20401;-78
2022/10/25 05:22:18;;;;;;;3.53;1.30;;;;;;;14.77;81.37;100544.19;5051809;28;20419;-79
2022/10/25 05:24:44;;;;;;;3.57;1.03;;;;;;;14.75;81.33;100540.91;5060548;28;20410;-79
2022/10/25 05:27:09;;;;;;;3.45;1.35;;;;;;;14.69;81.29;100541.97;5038054;28;20875;-78
2022/10/25 05:29:34;;;;;;;5.60;1.50;;;;;;;14.65;81.73;100538.97;5045795;28;20409;-78
2022/10/25 05:32:00;;;;;;;3.60;1.30;;;;;;;14.66;81.40;100545.22;5048985;28;20409;-78
2022/10/25 05:34:26;;;;;;;1.87;1.00;;;;;;;14.62;81.61;100552.34;5030795;28;20395;-79
2022/10/25 05:36:52;;;;;;;4.10;1.27;;;;;;;14.58;81.51;100553.97;5063203;28;20402;-78
2022/10/25 05:39:17;;;;;;;3.13;1.10;;;;;;;14.66;81.53;100561.59;5027784;28;20830;-78
2022/10/25 05:41:42;;;;;;;1.93;1.33;;;;;;;14.68;81.33;100559.44;5031665;28;20407;-79
2022/10/25 05:44:07;;;;;;;2.50;1.00;;;;;;;14.71;81.06;100565.19;5045518;28;20411;-76
2022/10/25 05:46:33;;;;;;;3.67;1.40;;;;;;;14.70;81.08;100566.25;5050267;28;20417;-77
2022/10/25 05:48:59;;;;;;;4.25;1.33;;;;;;;14.67;80.97;100569.53;5059848;28;20793;-77
2022/10/25 05:51:27;;;;;;;1.90;1.37;;;;;;;14.67;81.21;100564.06;5034168;28;20459;-77
2022/10/25 05:53:55;;;;;;;5.77;1.50;;;;;;;14.66;81.23;100576.06;5049791;28;20420;-77
2022/10/25 05:56:23;;;;;;;6.43;2.20;;;;;;;14.65;80.96;100576.34;5050133;28;20960;-80
2022/10/25 05:58:49;;;;;;;3.80;1.33;;;;;;;14.62;81.01;100574.16;5054040;28;20427;-77
2022/10/25 06:01:17;;;;;;;5.03;1.17;;;;;;;14.63;80.96;100575.78;5046713;28;20417;-77
2022/10/25 06:03:43;;;;;;;8.00;1.73;;;;;;;14.59;81.24;100585.59;5051911;28;20460;-77
2022/10/25 06:06:10;;;;;;;5.43;2.00;;;;;;;14.58;81.10;100575.78;5051782;28;20427;-77
2022/10/25 06:08:36;;;;;;;2.70;1.50;;;;;;;14.56;81.14;100586.94;5052936;28;20399;-77
2022/10/25 06:11:10;;;;;;;3.05;1.02;;;;;;;14.57;81.29;100583.13;5047133;28;20883;-77
2022/10/25 06:13:36;;;;;;;4.30;1.45;;;;;;;14.56;81.43;100586.94;5051957;28;20627;-77
2022/10/25 06:16:06;;;;;;;7.80;1.75;;;;;;;14.55;81.09;100583.38;5044036;28;20879;-77
2022/10/25 06:18:32;;;;;;;4.47;1.17;;;;;;;14.51;81.48;100595.94;5023650;28;20586;-77
2022/10/25 06:21:11;;;;;;;4.88;1.08;;;;;;;14.49;81.39;100595.38;5045660;28;20405;-89
2022/10/25 06:23:38;;;;;;;3.47;1.13;;;;;;;14.50;81.30;100597.03;5024394;28;20964;-77
2022/10/25 06:26:07;;;;;;;2.45;1.50;;;;;;;14.49;81.47;100603.56;5037692;28;20403;-77
2022/10/25 06:28:35;;;;;;;4.30;1.00;;;;;;;14.52;81.37;100604.94;5031541;28;20989;-77
2022/10/25 06:31:07;;;;;;;3.88;1.60;;;;;;;14.54;81.37;100608.22;5052365;28;20488;-77
2022/10/25 06:33:33;;;;;;;4.03;1.73;;;;;;;14.53;81.30;100609.28;5048338;28;20416;-77
2022/10/25 06:36:00;;;;;;;4.60;1.52;;;;;;;14.53;81.13;100601.94;5032153;28;20475;-77
2022/10/25 06:38:26;;;;;;;3.00;1.20;;;;;;;14.55;81.19;100607.94;5055033;28;20425;-77
2022/10/25 06:40:57;;;;;;;2.37;1.40;;;;;;;14.54;80.99;100611.78;5062350;28;20756;-76
2022/10/25 06:43:22;;;;;;;3.83;1.57;;;;;;;14.54;81.09;100617.22;5052891;28;20935;-77
2022/10/25 06:45:48;;;;;;;3.47;1.50;;;;;;;14.55;81.04;100616.13;5051269;28;20522;-77
2022/10/25 06:48:13;;;;;;;5.00;1.43;;;;;;;14.57;81.13;100612.31;5053155;28;20441;-77
2022/10/25 06:50:38;;;;;;;5.53;1.52;;;;;;;14.49;81.35;100613.63;5043949;28;20743;-77
2022/10/25 06:53:04;;;;;;;8.43;1.53;;;;;;;14.57;81.01;100621.31;5037651;28;20460;-77
2022/10/25 06:55:29;;;;;;;4.97;1.40;;;;;;;14.59;81.01;100629.25;5040426;28;20433;-77
2022/10/25 06:57:56;;;;;;;5.07;1.60;;;;;;;14.58;80.97;100630.31;5053207;28;20399;-77
2022/10/25 07:00:21;;;;;;;4.20;1.10;;;;;;;14.60;81.09;100633.59;5042045;28;20397;-76
2022/10/25 07:02:56;;;;;;;5.03;1.30;;;;;;;14.61;80.99;100633.34;5025558;28;20788;-77
2022/10/25 07:05:21;;;;;;;5.25;1.52;;;;;;;14.69;80.81;100646.44;5042036;28;20440;-77
2022/10/25 07:07:47;;;;;;;7.15;1.63;;;;;;;14.67;80.84;100639.63;5039051;28;20861;-77
2022/10/25 07:10:12;;;;;;;3.17;1.10;;;;;;;14.68;80.91;100638.53;5045074;28;20964;-77
2022/10/25 07:12:37;;;;;;;3.57;1.47;;;;;;;14.71;80.79;100641.56;5044493;28;20406;-76
2022/10/25 07:15:03;;;;;;;1.97;1.00;;;;;;;14.68;80.91;100641.28;5056729;28;20413;-77
2022/10/25 07:17:29;;;;;;;5.53;1.52;;;;;;;14.70;81.02;100639.91;5051758;28;20423;-77
2022/10/25 07:19:54;;;;;;;4.57;1.10;;;;;;;14.75;80.81;100645.38;5058905;28;20454;-77
2022/10/25 07:22:19;;;;;;;3.83;1.52;;;;;;;14.76;80.62;100652.47;5045826;28;20414;-77
2022/10/25 07:24:44;;;;;;;4.80;1.80;;;;;;;14.79;80.75;100646.47;5053704;28;20403;-77
2022/10/25 07:27:10;;;;;;;5.80;1.07;;;;;;;14.84;80.54;100653.88;5057717;28;20407;-76
2022/10/25 07:29:35;;;;;;;1.98;0.93;;;;;;;14.87;80.41;100650.59;5041729;28;20404;-77
2022/10/25 07:32:00;;;;;;;2.47;1.20;;;;;;;14.86;80.62;100647.06;5052111;28;20874;-77
2022/10/25 07:34:26;;;;;;;6.13;1.50;;;;;;;14.88;80.50;100649.53;5055613;28;20399;-77
2022/10/25 07:36:51;;;;;;;2.57;1.57;;;;;;;14.90;80.45;100653.63;5055769;28;20814;-77
2022/10/25 07:39:16;;;;;;;5.23;1.30;;;;;;;14.90;80.47;100653.63;5054274;28;20402;-78
2022/10/25 07:41:42;;;;;;;6.43;1.40;;;;;;;14.92;80.75;100659.63;5031203;28;20422;-77
2022/10/25 07:44:07;;;;;;;3.10;1.20;;;;;;;15.03;80.40;100661.28;5035373;28;20427;-77
2022/10/25 07:46:32;;;;;;;11.82;5.68;;;;;;;15.06;80.11;100655.28;5031251;28;20408;-77
2022/10/25 07:48:57;;;;;;;4.10;1.70;;;;;;;15.10;80.26;100661.03;5036109;28;20399;-77
2022/10/25 07:51:23;;;;;;;7.93;1.33;;;;;;;15.11;80.21;100659.97;5034141;28;20399;-77
2022/10/25 07:53:49;;;;;;;5.80;1.20;;;;;;;15.14;80.13;100666.78;5032434;28;20452;-76
2022/10/25 07:56:17;;;;;;;5.00;1.25;;;;;;;15.08;80.35;100657.78;5027576;28;20508;-77
2022/10/25 07:58:42;;;;;;;2.85;1.35;;;;;;;15.12;80.40;100667.03;5045942;28;20539;-77
2022/10/25 08:01:09;;;;;;;4.43;0.97;;;;;;;15.16;80.26;100659.13;5046439;28;20397;-77
2022/10/25 08:03:35;;;;;;;4.72;1.35;;;;;;;15.24;80.04;100669.53;5041107;28;20445;-77
2022/10/25 08:06:01;;;;;;;13.20;1.30;;;;;;;15.30;79.65;100669.28;5031041;28;20930;-77
2022/10/25 08:08:27;;;;;;;2.83;1.13;;;;;;;15.32;79.82;100666.25;5031855;28;20934;-77
2022/10/25 08:10:53;;;;;;;5.93;1.30;;;;;;;15.31;79.85;100664.63;5024430;28;20407;-77
2022/10/25 08:13:18;;;;;;;4.20;1.07;;;;;;;15.35;79.93;100672.00;5032217;28;20808;-77
2022/10/25 08:15:54;;;;;;;5.40;1.50;;;;;;;15.39;79.74;100677.75;5030467;28;20409;-77
2022/10/25 08:18:21;;;;;;;3.78;1.38;;;;;;;15.43;79.93;100674.22;5031474;28;20414;-77
2022/10/25 08:20:46;;;;;;;1.90;1.20;;;;;;;15.44;79.79;100675.81;5032424;28;20401;-76
2022/10/25 08:23:12;;;;;;;3.93;1.20;;;;;;;15.47;79.79;100675.31;5031206;28;20913;-77
2022/10/25 08:25:37;;;;;;;2.28;1.00;;;;;;;15.50;79.73;100677.53;5032501;28;20762;-77
2022/10/25 08:28:02;;;;;;;3.70;1.30;;;;;;;15.52;79.46;100669.03;5028989;28;20404;-77
2022/10/25 08:30:30;;;;;;;7.28;1.30;;;;;;;15.54;79.34;100675.06;5021197;28;20888;-76
2022/10/25 08:32:55;;;;;;;3.65;1.30;;;;;;;15.59;79.27;100675.06;5030198;28;20395;-77
2022/10/25 08:35:21;;;;;;;6.15;1.73;;;;;;;15.62;79.11;100679.16;5029706;28;20399;-77
2022/10/25 08:37:46;;;;;;;2.83;1.20;;;;;;;15.68;78.89;100675.31;5035465;28;20414;-77
2022/10/25 08:40:17;;;;;;;4.10;1.15;;;;;;;15.74;78.96;100666.06;5023917;28;20433;-77
2022/10/25 08:43:11;;;;;;;8.93;1.20;;;;;;;15.81;78.87;100669.31;5043088;28;20440;-77
2022/10/25 08:45:46;;;;;;;3.50;1.30;;;;;;;15.88;78.76;100672.59;5035775;28;20393;-76
2022/10/25 08:48:16;;;;;;;3.25;1.85;;;;;;;15.93;78.29;100669.88;5049859;28;20438;-76
2022/10/25 08:50:57;;;;;;;4.63;1.42;;;;;;;15.97;78.17;100666.28;5045248;28;20425;-76
2022/10/25 08:53:29;;;;;;;3.83;1.20;;;;;;;16.03;78.15;100667.94;5044368;28;20405;-76
2022/10/25 08:55:54;;;;;;;1.75;1.15;;;;;;;16.33;77.55;100671.72;5048225;28;20412;-76
2022/10/25 08:58:25;;;;;;;5.73;1.70;;;;;;;16.72;75.54;100671.88;5045004;28;20401;-76
2022/10/25 09:00:50;;;;;;;8.20;1.30;;;;;;;16.49;76.37;100679.59;5044785;28;20402;-77
2022/10/25 09:03:24;;;;;;;7.63;1.45;;;;;;;16.38;76.91;100677.97;5042324;28;20443;-76
2022/10/25 09:06:22;;;;;;;4.97;1.60;;;;;;;16.64;76.29;100670.53;5044853;28;20466;-76
2022/10/25 09:08:58;;;;;;;5.43;1.47;;;;;;;16.69;76.33;100672.44;5045494;28;20945;-76
2022/10/25 09:11:47;;;;;;;6.13;1.00;;;;;;;16.79;76.24;100686.09;5041597;28;20405;-76
2022/10/25 09:14:27;;;;;;;4.07;1.10;;;;;;;16.96;75.95;100690.09;5044742;28;20402;-76
2022/10/25 09:17:01;;;;;;;3.38;1.33;;;;;;;17.13;75.42;100693.28;5050705;28;20415;-77
2022/10/25 09:19:50;;;;;;;2.10;1.23;;;;;;;17.26;74.75;100694.56;5047803;28;20433;-77
2022/10/25 09:22:27;;;;;;;6.00;1.20;;;;;;;17.32;74.62;100696.19;5045657;28;20540;-77
2022/10/25 09:25:05;;;;;;;2.55;0.90;;;;;;;17.35;74.32;100701.13;5044035;28;20944;-77
2022/10/25 09:27:35;;;;;;;4.38;1.20;;;;;;;17.38;73.98;100702.47;5046234;28;20425;-76
2022/10/25 09:30:09;;;;;;;6.22;1.20;;;;;;;17.36;73.45;100691.78;5057664;28;20422;-76
2022/10/25 09:32:47;;;;;;;4.60;1.00;;;;;;;17.52;73.16;100698.78;5043062;28;20430;-76
2022/10/25 09:35:16;;;;;;;5.95;1.42;;;;;;;17.72;72.54;100691.53;5043589;28;20412;-76
2022/10/25 09:37:46;;;;;;;5.90;1.07;;;;;;;17.92;71.63;100705.09;5042821;28;20396;-76
2022/10/25 09:40:19;;;;;;;5.80;1.20;;;;;;;18.18;70.85;100690.03;5043491;28;20401;-76
2022/10/25 09:42:55;;;;;;;3.50;1.08;;;;;;;19.23;68.03;100700.09;5044115;28;20508;-76
2022/10/25 09:45:29;;;;;;;7.10;1.23;;;;;;;20.59;63.86;100695.88;5042837;28;20421;-76
2022/10/25 09:48:05;;;;;;;4.22;1.10;;;;;;;21.27;61.04;100700.53;5043057;28;20390;-77
2022/10/25 09:50:39;;;;;;;7.53;1.27;;;;;;;21.37;60.47;100699.50;5042508;28;20877;-76
2022/10/25 09:53:16;;;;;;;5.22;1.30;;;;;;;21.73;59.21;100703.03;5043872;28;20413;-76
2022/10/25 09:55:47;;;;;;;3.17;1.08;;;;;;;21.62;59.13;100698.88;5048081;28;20389;-76
2022/10/25 09:58:19;;;;;;;2.72;0.77;;;;;;;20.28;62.04;100697.59;5043739;28;20809;-77
2022/10/25 10:00:45;;;;;;;4.22;0.93;;;;;;;20.64;62.54;100700.47;5021566;28;20730;-77
2022/10/25 10:03:11;;;;;;;5.27;0.97;;;;;;;21.32;59.88;100692.16;5044280;28;20436;-77
2022/10/25 10:05:39;;;;;;;5.88;1.60;;;;;;;21.63;58.95;100697.78;5043273;28;20758;-76
2022/10/25 10:08:07;;;;;;;4.55;1.17;;;;;;;21.36;59.40;100692.34;5043754;28;20888;-77
2022/10/25 10:10:34;;;;;;;6.40;1.20;;;;;;;21.43;58.98;100698.25;5044735;28;20414;-77
2022/10/25 10:13:16;;;;;;;8.73;1.47;;;;;;;21.56;58.90;100692.69;5040545;28;20407;-76
2022/10/25 10:15:51;;;;;;;1.73;0.88;;;;;;;23.15;54.07;100688.97;5042517;28;20499;-76
2022/10/25 10:18:33;;;;;;;4.43;1.00;;;;;;;23.75;51.47;100694.53;5050639;28;20814;-76
2022/10/25 10:21:05;;;;;;;4.45;1.15;;;;;;;22.49;54.02;100695.56;5046882;28;20880;-77
2022/10/25 10:23:56;;;;;;;4.43;1.08;;;;;;;20.95;58.40;100695.13;5051264;28;20425;-76
2022/10/25 10:26:54;;;;;;;4.82;1.80;;;;;;;19.97;61.30;100690.97;5043766;28;20394;-77
2022/10/25 10:29:35;;;;;;;5.10;1.20;;;;;;;19.43;63.05;100692.38;5012659;28;20768;-77
2022/10/25 10:32:19;;;;;;;5.57;1.20;;;;;;;19.18;64.16;100689.97;5044820;28;20500;-76
2022/10/25 10:34:51;;;;;;;4.35;0.95;;;;;;;19.07;64.89;100688.47;5042670;28;20459;-76
2022/10/25 10:37:19;;;;;;;6.53;1.40;;;;;;;19.11;65.01;100682.09;5042238;28;20409;-76
2022/10/25 10:39:59;;;;;;;5.17;1.43;;;;;;;19.06;65.49;100679.44;5043461;28;20395;-76
2022/10/25 10:42:36;;;;;;;3.50;1.55;;;;;;;18.91;66.06;100679.63;5041742;28;20438;-76
2022/10/25 10:45:06;;;;;;;2.22;1.00;;;;;;;18.81;66.04;100673.44;5046483;28;20405;-76
2022/10/25 10:47:41;;;;;;;3.28;0.93;;;;;;;18.76;66.62;100676.25;5052827;28;20476;-76
2022/10/25 10:50:24;;;;;;;7.18;1.50;;;;;;;18.82;66.68;100678.66;5031302;28;20411;-76
2022/10/25 10:53:01;;;;;;;4.85;0.95;;;;;;;18.93;66.64;100668.34;5041661;28;20405;-76
2022/10/25 10:55:36;;;;;;;4.63;1.38;;;;;;;18.95;66.36;100664.19;5045231;28;20418;-76
2022/10/25 10:58:05;;;;;;;3.05;1.13;;;;;;;18.88;66.22;100666.47;5025302;28;20397;-77
2022/10/25 11:00:32;;;;;;;3.65;1.50;;;;;;;18.73;66.54;100663.94;5046588;28;20397;-76
2022/10/25 11:02:57;;;;;;;5.93;1.25;;;;;;;18.74;66.73;100668.31;5048721;28;20769;-76
2022/10/25 11:05:27;;;;;;;4.00;1.00;;;;;;;18.91;66.38;100665.88;5048080;28;20409;-76
2022/10/25 11:08:16;;;;;;;4.60;1.00;;;;;;;18.92;66.04;100667.53;5048763;28;20409;-77
2022/10/25 11:10:41;;;;;;;4.38;0.98;;;;;;;18.92;65.78;100677.69;5045526;28;20925;-76
2022/10/25 11:13:10;;;;;;;4.63;0.90;;;;;;;18.92;66.09;100667.53;5047346;28;20401;-76
2022/10/25 11:16:06;;;;;;;6.22;1.40;;;;;;;18.91;66.51;100665.06;5048255;28;20526;-76
2022/10/25 11:18:49;;;;;;;5.07;1.33;;;;;;;18.76;67.11;100668.84;5047156;28;20405;-77
2022/10/25 11:21:24;;;;;;;6.45;1.17;;;;;;;18.72;67.35;100675.19;5046715;28;20402;-77
2022/10/25 11:24:41;;;;;;;5.82;1.27;;;;;;;18.82;67.14;100669.59;5046258;28;20983;-75
2022/10/25 11:27:23;;;;;;;4.63;1.13;;;;;;;18.83;67.05;100672.06;4961692;28;20424;-76
2022/10/25 11:30:03;;;;;;;5.00;1.20;;;;;;;18.69;67.40;100670.31;5050600;28;20415;-76
2022/10/25 11:32:53;;;;;;;6.57;1.10;;;;;;;18.70;67.76;100667.28;5052579;28;20441;-76
2022/10/25 11:35:43;;;;;;;5.05;0.93;;;;;;;19.02;67.01;100672.06;5047113;28;20400;-76
2022/10/25 11:38:16;;;;;;;5.18;1.08;;;;;;;19.23;66.71;100669.84;5051503;28;20464;-76